Time;durP1;ratioP1;P1;durP2;ratioP2;P2;SDS_P1;SDS_P2;PMS_P1;PMS_P2;Temp;Humidity;BMP_temperature;BMP_pressure;BME280_temperature;BME280_humidity;BME280_pressure;Samples;Min_cycle;Max_cycle;Signal;HPM_P1;HPM_P2
2023/07/14 00:00:28;;;;;;;6.15;4.03;;;;;;;13.78;100.00;94276.19;5089708;28;20070;-61
2023/07/14 00:02:56;;;;;;;6.20;3.65;;;;;;;13.83;100.00;94275.69;5089083;28;20036;-61
2023/07/14 00:05:28;;;;;;;7.00;3.60;;;;;;;13.82;100.00;94270.59;5089567;28;20089;-61
2023/07/14 00:07:56;;;;;;;6.93;4.00;;;;;;;13.77;100.00;94269.13;5087773;28;20046;-62
2023/07/14 00:10:32;;;;;;;6.75;4.10;;;;;;;13.66;100.00;94274.09;5088823;28;20048;-63
2023/07/14 00:13:07;;;;;;;17.85;11.82;;;;;;;13.61;100.00;94263.56;5108177;27;20112;-62
2023/07/14 00:15:37;;;;;;;8.25;5.68;;;;;;;13.18;100.00;94268.72;5095815;28;20457;-64
2023/07/14 00:18:24;;;;;;;7.25;4.18;;;;;;;13.12;100.00;94262.16;5091199;28;20054;-60
2023/07/14 00:20:51;;;;;;;8.70;4.33;;;;;;;13.24;100.00;94259.94;5092302;28;20043;-61
2023/07/14 00:23:18;;;;;;;7.55;4.28;;;;;;;13.22;100.00;94259.59;5096712;28;20044;-63
2023/07/14 00:25:45;;;;;;;6.25;4.10;;;;;;;13.33;100.00;94260.97;5096723;28;20457;-61
2023/07/14 00:28:18;;;;;;;6.13;3.78;;;;;;;13.33;100.00;94260.19;5109038;28;20035;-62
2023/07/14 00:30:48;;;;;;;8.73;4.18;;;;;;;13.36;100.00;94253.81;5108681;28;20050;-61
2023/07/14 00:33:17;;;;;;;5.20;3.80;;;;;;;13.32;100.00;94253.13;5070741;28;20054;-61
2023/07/14 00:35:47;;;;;;;6.43;4.10;;;;;;;13.39;100.00;94250.22;5088494;28;20036;-61
2023/07/14 00:38:14;;;;;;;5.60;3.88;;;;;;;13.42;100.00;94251.34;5107977;28;20660;-63
2023/07/14 00:40:44;;;;;;;16.23;9.80;;;;;;;13.36;100.00;94248.31;5107948;28;20370;-61
2023/07/14 00:43:18;;;;;;;9.32;4.80;;;;;;;13.27;100.00;94253.59;5090037;28;20048;-61
2023/07/14 00:45:50;;;;;;;8.17;4.77;;;;;;;13.31;100.00;94248.81;5107396;28;20032;-61
2023/07/14 00:48:23;;;;;;;8.68;4.40;;;;;;;13.31;100.00;94246.84;5108071;28;20446;-62
2023/07/14 00:51:13;;;;;;;7.53;4.10;;;;;;;12.84;100.00;94244.19;5108210;28;20047;-62
2023/07/14 00:53:43;;;;;;;8.68;4.25;;;;;;;12.94;100.00;94247.94;5108914;28;20042;-61
2023/07/14 00:56:10;;;;;;;6.65;4.20;;;;;;;12.97;100.00;94244.34;5108504;28;20047;-62
2023/07/14 00:58:39;;;;;;;7.50;4.20;;;;;;;13.03;100.00;94244.63;5115446;27;20044;-62
2023/07/14 01:01:08;;;;;;;7.07;4.05;;;;;;;13.07;100.00;94239.81;5090638;28;20052;-62
2023/07/14 01:03:39;;;;;;;6.93;4.20;;;;;;;13.12;100.00;94234.59;5093433;28;20454;-64
2023/07/14 01:06:12;;;;;;;7.53;4.10;;;;;;;13.00;100.00;94229.72;5086014;28;20047;-63
2023/07/14 01:08:51;;;;;;;7.22;4.70;;;;;;;12.90;100.00;94225.97;5108076;28;20046;-61
2023/07/14 01:11:22;;;;;;;5.93;4.40;;;;;;;12.91;100.00;94227.50;5099328;28;20964;-62
2023/07/14 01:13:49;;;;;;;6.70;4.40;;;;;;;12.90;100.00;94230.72;5095875;28;20034;-62
2023/07/14 01:16:16;;;;;;;7.43;4.25;;;;;;;12.92;100.00;94229.09;5109277;28;20042;-61
2023/07/14 01:18:45;;;;;;;8.80;4.68;;;;;;;12.83;100.00;94226.09;5109219;28;20040;-61
2023/07/14 01:21:11;;;;;;;10.23;4.70;;;;;;;12.75;100.00;94228.19;5108578;28;20424;-61
2023/07/14 01:23:59;;;;;;;6.77;4.57;;;;;;;12.76;100.00;94224.25;5108907;28;20624;-62
2023/07/14 01:26:48;;;;;;;7.47;4.50;;;;;;;12.75;100.00;94232.94;5101364;28;20784;-61
2023/07/14 01:29:15;;;;;;;8.95;5.90;;;;;;;12.58;100.00;94227.34;5086468;28;20158;-61
2023/07/14 01:31:42;;;;;;;8.68;5.30;;;;;;;12.71;100.00;94229.47;5090968;28;20043;-61
2023/07/14 01:34:09;;;;;;;7.05;4.40;;;;;;;12.76;100.00;94226.25;5108395;28;20040;-61
2023/07/14 01:36:36;;;;;;;7.57;4.90;;;;;;;12.70;100.00;94234.22;5108837;28;20199;-62
2023/07/14 01:39:03;;;;;;;6.53;4.15;;;;;;;12.76;100.00;94218.75;5097322;28;20407;-62
2023/07/14 01:41:30;;;;;;;8.35;4.60;;;;;;;12.82;100.00;94224.56;5094760;28;20388;-61
2023/07/14 01:44:03;;;;;;;8.45;4.30;;;;;;;12.82;100.00;94230.06;5108113;28;20160;-62
2023/07/14 01:46:30;;;;;;;6.28;4.20;;;;;;;12.80;100.00;94224.19;5108745;28;20047;-62
2023/07/14 01:48:57;;;;;;;8.57;4.43;;;;;;;12.75;100.00;94221.91;5107971;28;20439;-62
2023/07/14 01:51:26;;;;;;;7.10;4.47;;;;;;;12.62;100.00;94215.50;5108375;28;20061;-63
2023/07/14 01:54:01;;;;;;;6.55;4.35;;;;;;;12.52;100.00;94209.75;5108040;28;20039;-62
2023/07/14 01:56:30;;;;;;;7.43;4.40;;;;;;;12.55;100.00;94210.88;5108579;28;20464;-61
2023/07/14 01:59:11;;;;;;;8.68;4.40;;;;;;;12.54;100.00;94206.59;5090286;28;20074;-61
2023/07/14 02:01:41;;;;;;;6.70;4.50;;;;;;;12.49;100.00;94209.81;5108758;28;20038;-62
2023/07/14 02:04:17;;;;;;;7.85;4.50;;;;;;;12.42;100.00;94201.69;5089742;28;20055;-62
2023/07/14 02:06:44;;;;;;;6.85;4.70;;;;;;;12.10;100.00;94195.53;5108831;28;20036;-63
2023/07/14 02:09:21;;;;;;;7.78;4.55;;;;;;;12.22;100.00;94193.41;5107808;28;20046;-62
2023/07/14 02:11:53;;;;;;;7.00;4.65;;;;;;;12.29;100.00;94190.50;5089117;28;20051;-61
2023/07/14 02:14:21;;;;;;;8.10;4.50;;;;;;;12.25;100.00;94190.56;5093076;28;20411;-61
2023/07/14 02:16:51;;;;;;;7.28;4.60;;;;;;;12.23;100.00;94184.69;5107859;28;20648;-62
2023/07/14 02:19:24;;;;;;;7.10;4.50;;;;;;;12.14;100.00;94188.00;5108510;28;20035;-62
2023/07/14 02:21:54;;;;;;;7.00;4.80;;;;;;;12.16;100.00;94196.59;5107969;28;20044;-63
2023/07/14 02:24:23;;;;;;;7.60;4.82;;;;;;;11.99;100.00;94189.41;5090057;28;20126;-62
2023/07/14 02:26:59;;;;;;;7.80;5.07;;;;;;;11.75;100.00;94189.38;5107764;28;20449;-62
2023/07/14 02:29:26;;;;;;;8.07;5.05;;;;;;;11.76;100.00;94195.66;5108165;28;20044;-62
2023/07/14 02:31:57;;;;;;;7.30;4.88;;;;;;;11.79;100.00;94198.34;5090298;28;20344;-61
2023/07/14 02:34:30;;;;;;;8.60;4.63;;;;;;;11.84;100.00;94188.84;5087978;28;20036;-61
2023/07/14 02:37:00;;;;;;;9.43;4.80;;;;;;;11.90;100.00;94197.44;5066871;28;20051;-63
2023/07/14 02:39:38;;;;;;;8.53;4.70;;;;;;;11.94;100.00;94189.91;5093849;28;20411;-62
2023/07/14 02:42:05;;;;;;;6.60;4.28;;;;;;;11.97;100.00;94195.34;5093280;28;20036;-62
2023/07/14 02:44:36;;;;;;;8.55;4.80;;;;;;;11.85;100.00;94187.66;5100492;28;20048;-62
2023/07/14 02:47:09;;;;;;;7.82;4.57;;;;;;;11.88;100.00;94192.31;5095942;28;20040;-63
2023/07/14 02:49:36;;;;;;;8.70;4.43;;;;;;;11.90;100.00;94189.97;5097927;28;20044;-62
2023/07/14 02:52:03;;;;;;;7.50;4.80;;;;;;;11.92;100.00;94181.31;5097759;28;20056;-64
2023/07/14 02:54:29;;;;;;;7.55;4.28;;;;;;;11.95;100.00;94178.50;5097769;28;20039;-62
2023/07/14 02:56:56;;;;;;;7.82;4.38;;;;;;;11.91;100.00;94179.72;5098097;28;20050;-61
2023/07/14 02:59:23;;;;;;;6.95;4.50;;;;;;;11.86;100.00;94164.47;5095125;28;20116;-62
2023/07/14 03:01:50;;;;;;;6.93;4.43;;;;;;;11.85;100.00;94159.38;5094646;28;20036;-62
2023/07/14 03:04:17;;;;;;;8.13;4.20;;;;;;;11.82;100.00;94172.00;5096407;28;20089;-63
2023/07/14 03:06:44;;;;;;;9.52;4.80;;;;;;;11.78;100.00;94158.28;5097945;28;20046;-63
2023/07/14 03:09:13;;;;;;;8.13;4.50;;;;;;;11.79;100.00;94159.06;5096725;28;20811;-62
2023/07/14 03:11:40;;;;;;;7.05;4.60;;;;;;;11.83;100.00;94162.56;5102496;28;20038;-63
2023/07/14 03:14:08;;;;;;;8.25;4.50;;;;;;;11.50;100.00;94164.25;5102955;28;20048;-61
2023/07/14 03:16:35;;;;;;;6.43;4.37;;;;;;;11.50;100.00;94170.50;5083900;28;20070;-61
2023/07/14 03:19:02;;;;;;;7.10;4.75;;;;;;;11.50;100.00;94165.00;5081667;28;20045;-62
2023/07/14 03:21:29;;;;;;;9.77;5.20;;;;;;;11.50;100.00;94165.00;5094134;28;20047;-62
2023/07/14 03:23:58;;;;;;;7.22;4.53;;;;;;;11.44;100.00;94163.94;5101418;28;20036;-62
2023/07/14 03:26:25;;;;;;;8.10;5.55;;;;;;;11.49;100.00;94163.47;5102277;28;20036;-62
2023/07/14 03:28:52;;;;;;;8.20;5.00;;;;;;;11.53;100.00;94166.16;5099752;28;20036;-62
2023/07/14 03:31:18;;;;;;;7.72;5.03;;;;;;;11.50;100.00;94156.00;5100220;28;21546;-62
2023/07/14 03:33:46;;;;;;;8.18;4.30;;;;;;;11.50;100.00;94165.00;5078800;28;20040;-61
2023/07/14 03:36:13;;;;;;;7.93;4.78;;;;;;;11.37;100.00;94153.06;5096175;28;22155;-62
2023/07/14 03:38:45;;;;;;;8.18;4.70;;;;;;;11.40;100.00;94158.47;5098581;28;20056;-62
2023/07/14 03:41:14;;;;;;;6.13;4.60;;;;;;;11.47;100.00;94152.13;5101003;28;20051;-62
2023/07/14 03:43:42;;;;;;;9.13;4.60;;;;;;;11.50;100.00;94148.53;5104606;27;20040;-62
2023/07/14 03:46:10;;;;;;;10.13;5.35;;;;;;;11.45;100.00;94140.75;5100705;28;20044;-62
2023/07/14 03:48:38;;;;;;;16.77;10.50;;;;;;;11.30;100.00;94145.66;5101653;27;20040;-63
2023/07/14 03:51:05;;;;;;;8.57;5.32;;;;;;;11.32;100.00;94140.53;5098850;28;20048;-63
2023/07/14 03:53:32;;;;;;;8.40;4.90;;;;;;;11.36;100.00;94137.75;5100375;28;20039;-61
2023/07/14 03:55:59;;;;;;;8.55;4.88;;;;;;;11.52;100.00;94139.88;5081495;28;20039;-62
2023/07/14 03:58:27;;;;;;;6.57;4.70;;;;;;;11.55;100.00;94139.81;5095192;28;20051;-62
2023/07/14 04:00:59;;;;;;;7.88;4.80;;;;;;;11.43;100.00;94140.41;5098012;27;20412;-62
2023/07/14 04:03:26;;;;;;;9.35;4.85;;;;;;;11.34;100.00;94134.63;5095804;28;20513;-62
2023/07/14 04:05:53;;;;;;;7.57;4.90;;;;;;;11.57;100.00;94144.91;5097804;28;20047;-61
2023/07/14 04:08:21;;;;;;;12.43;4.80;;;;;;;11.64;100.00;94146.75;5101680;28;20040;-63
2023/07/14 04:10:48;;;;;;;8.55;4.95;;;;;;;11.51;100.00;94136.34;5091677;28;20036;-63
2023/07/14 04:13:15;;;;;;;8.35;5.10;;;;;;;11.34;100.00;94143.66;5102002;28;20529;-62
2023/07/14 04:15:41;;;;;;;6.72;4.90;;;;;;;11.46;100.00;94136.81;5110070;28;20039;-62
2023/07/14 04:18:08;;;;;;;7.63;5.07;;;;;;;11.65;100.00;94140.84;5110088;28;20069;-61
2023/07/14 04:20:35;;;;;;;8.05;5.40;;;;;;;11.84;100.00;94144.09;5108831;28;20519;-62
2023/07/14 04:23:02;;;;;;;9.75;5.50;;;;;;;12.03;100.00;94132.38;5109756;28;20046;-61
2023/07/14 04:25:28;;;;;;;7.10;4.88;;;;;;;12.13;100.00;94136.94;5109969;28;20046;-62
2023/07/14 04:27:55;;;;;;;8.82;5.30;;;;;;;11.95;100.00;94131.75;5091494;28;20051;-62
2023/07/14 04:30:22;;;;;;;7.53;5.10;;;;;;;12.11;100.00;94136.59;5108167;28;20046;-61
2023/07/14 04:32:50;;;;;;;8.05;4.97;;;;;;;12.36;100.00;94127.09;5106643;28;20510;-62
2023/07/14 04:35:17;;;;;;;8.90;5.00;;;;;;;12.25;100.00;94119.00;5102404;28;20057;-62
2023/07/14 04:37:44;;;;;;;9.38;4.80;;;;;;;12.38;100.00;94122.72;5073827;28;20145;-63
2023/07/14 04:40:11;;;;;;;7.35;4.82;;;;;;;12.56;100.00;94127.09;5086469;27;20051;-63
2023/07/14 04:42:55;;;;;;;8.07;5.13;;;;;;;12.69;100.00;94130.00;5090081;28;20389;-62
2023/07/14 04:45:22;;;;;;;8.20;4.90;;;;;;;12.40;100.00;94130.56;5088341;28;20383;-63
2023/07/14 04:47:50;;;;;;;9.32;4.93;;;;;;;12.40;100.00;94116.78;5079872;28;20054;-61
2023/07/14 04:50:18;;;;;;;9.88;4.68;;;;;;;12.47;100.00;94124.13;5097340;28;20072;-61
2023/07/14 04:52:44;;;;;;;10.70;4.82;;;;;;;12.70;100.00;94112.28;5093898;28;21462;-61
2023/07/14 04:55:11;;;;;;;8.53;5.37;;;;;;;12.75;100.00;94106.25;5100562;28;20038;-63
2023/07/14 04:57:38;;;;;;;9.00;5.05;;;;;;;12.71;100.00;94109.09;5097351;28;20044;-62
2023/07/14 05:00:05;;;;;;;8.30;5.50;;;;;;;12.87;100.00;94113.09;5094789;28;20070;-62
2023/07/14 05:02:32;;;;;;;8.30;5.32;;;;;;;12.59;100.00;94107.75;5094633;28;20039;-62
2023/07/14 05:05:20;;;;;;;8.27;5.25;;;;;;;12.47;100.00;94096.59;5094820;27;20048;-62
2023/07/14 05:07:48;;;;;;;7.83;5.57;;;;;;;12.71;100.00;94092.56;5094858;28;20054;-62
2023/07/14 05:10:20;;;;;;;8.32;5.53;;;;;;;13.05;100.00;94082.44;5090790;28;20044;-62
2023/07/14 05:12:51;;;;;;;9.15;5.57;;;;;;;13.09;100.00;94083.88;5089341;28;20040;-63
2023/07/14 05:15:19;;;;;;;8.35;5.40;;;;;;;13.19;100.00;94080.13;5089682;28;21660;-62
2023/07/14 05:17:46;;;;;;;8.65;5.03;;;;;;;13.39;100.00;94082.84;5097786;28;20055;-62
2023/07/14 05:20:15;;;;;;;7.37;5.20;;;;;;;13.42;100.00;94077.66;5096373;28;20403;-62
2023/07/14 05:22:45;;;;;;;9.23;5.47;;;;;;;13.38;100.00;94086.81;5093734;28;20044;-63
2023/07/14 05:25:13;;;;;;;9.82;5.35;;;;;;;13.51;100.00;94092.41;5098453;28;20072;-63
2023/07/14 05:27:43;;;;;;;7.75;5.40;;;;;;;13.88;100.00;94106.09;5095799;28;20066;-63
2023/07/14 05:30:14;;;;;;;7.28;5.25;;;;;;;13.70;100.00;94109.31;5094221;28;20677;-63
2023/07/14 05:32:45;;;;;;;8.17;5.13;;;;;;;14.23;100.00;94095.38;5094927;28;20062;-62
2023/07/14 05:35:14;;;;;;;7.68;5.25;;;;;;;16.65;100.00;94087.53;5092901;28;20457;-62
2023/07/14 05:37:42;;;;;;;9.20;4.15;;;;;;;18.36;100.00;94085.66;5094024;27;20039;-63
2023/07/14 05:40:10;;;;;;;7.75;4.60;;;;;;;21.25;90.90;94079.84;5096966;28;20441;-64
2023/07/14 05:42:38;;;;;;;9.75;4.30;;;;;;;21.06;82.71;94081.25;5078433;28;20518;-63
2023/07/14 05:45:06;;;;;;;6.07;4.20;;;;;;;19.96;91.28;94089.22;5099137;28;20043;-65
2023/07/14 05:47:35;;;;;;;7.53;4.57;;;;;;;19.25;94.00;94084.97;5093987;28;20047;-62
2023/07/14 05:50:04;;;;;;;7.40;4.43;;;;;;;18.12;100.00;94090.25;5091581;28;20044;-63
2023/07/14 05:52:32;;;;;;;7.47;4.38;;;;;;;20.98;89.86;94083.66;5076634;28;20040;-65
2023/07/14 05:55:05;;;;;;;6.47;4.10;;;;;;;23.41;73.58;94084.22;5079985;28;20052;-64
2023/07/14 05:57:33;;;;;;;5.97;4.00;;;;;;;24.53;69.57;94084.25;5096465;28;20047;-63
2023/07/14 06:00:00;;;;;;;7.55;4.22;;;;;;;23.93;70.43;94079.31;5097470;28;20088;-63
2023/07/14 06:02:27;;;;;;;5.45;3.58;;;;;;;25.75;63.68;94070.22;5064329;28;20040;-64
2023/07/14 06:04:54;;;;;;;6.32;3.97;;;;;;;25.08;61.71;94073.72;5059175;28;20640;-64
2023/07/14 06:07:20;;;;;;;8.30;4.00;;;;;;;25.71;59.59;94069.72;5088820;28;20040;-64
2023/07/14 06:09:47;;;;;;;6.53;3.97;;;;;;;26.89;56.79;94061.00;5107470;28;20043;-63
2023/07/14 06:12:14;;;;;;;6.72;3.85;;;;;;;26.47;55.57;94067.81;5099957;28;20729;-64
2023/07/14 06:14:41;;;;;;;5.88;3.67;;;;;;;25.19;59.15;94068.09;5090496;28;20044;-64
2023/07/14 06:17:08;;;;;;;4.97;3.63;;;;;;;26.72;56.52;94060.31;5107617;28;20162;-64
2023/07/14 06:19:37;;;;;;;5.93;3.60;;;;;;;27.40;51.18;94069.19;5108579;28;20043;-64
2023/07/14 06:22:06;;;;;;;7.47;3.60;;;;;;;27.66;50.79;94062.34;5089814;28;20518;-62
2023/07/14 06:24:36;;;;;;;7.25;3.10;;;;;;;25.27;55.75;94065.59;5108224;28;20044;-63
2023/07/14 06:27:05;;;;;;;5.45;2.83;;;;;;;25.75;52.06;94050.53;5107392;28;20040;-63
2023/07/14 06:29:37;;;;;;;5.85;2.90;;;;;;;28.07;45.87;94053.03;5108033;28;20103;-62
2023/07/14 06:32:04;;;;;;;5.65;2.65;;;;;;;30.88;38.28;94046.56;5107707;28;20048;-62
2023/07/14 06:34:30;;;;;;;4.80;2.67;;;;;;;32.34;33.68;94043.16;5108121;28;20079;-63
2023/07/14 06:36:57;;;;;;;7.05;2.60;;;;;;;32.33;34.00;94046.56;5079835;28;20174;-63
2023/07/14 06:39:24;;;;;;;7.82;2.53;;;;;;;30.80;34.58;94046.44;5104377;28;20044;-64
2023/07/14 06:41:51;;;;;;;4.30;2.20;;;;;;;29.99;32.21;94033.56;5111455;28;20066;-64
2023/07/14 06:44:19;;;;;;;5.22;2.30;;;;;;;24.57;41.21;94028.69;5112108;28;20039;-59
2023/07/14 06:46:52;;;;;;;5.00;2.30;;;;;;;25.07;41.32;94033.66;5094081;28;20043;-61
2023/07/14 06:49:18;;;;;;;5.47;2.35;;;;;;;25.74;40.61;94026.53;5110919;28;20036;-60
2023/07/14 06:51:49;;;;;;;3.38;2.33;;;;;;;26.75;38.75;94019.88;5098810;28;20039;-60
2023/07/14 06:54:16;;;;;;;6.28;2.25;;;;;;;25.66;40.16;94017.09;5097567;28;20050;-60
2023/07/14 06:56:42;;;;;;;5.05;2.30;;;;;;;26.07;40.04;94014.47;5091195;28;20036;-61
2023/07/14 06:59:09;;;;;;;5.93;2.50;;;;;;;24.65;41.49;94020.50;5091264;28;20054;-61
2023/07/14 07:01:36;;;;;;;4.93;2.65;;;;;;;23.24;44.68;94028.06;5078346;28;20104;-60
2023/07/14 07:04:04;;;;;;;5.07;2.70;;;;;;;23.99;44.75;94033.72;5080575;28;20048;-60
2023/07/14 07:06:31;;;;;;;4.18;2.40;;;;;;;24.08;44.87;94025.88;5104753;28;20062;-60
2023/07/14 07:08:57;;;;;;;6.18;2.80;;;;;;;23.24;46.87;94028.06;5111106;28;20047;-60
2023/07/14 07:11:24;;;;;;;4.97;2.50;;;;;;;25.18;44.09;94020.91;5108751;28;20047;-60
2023/07/14 07:13:51;;;;;;;6.60;2.42;;;;;;;24.32;47.16;94027.50;5092430;28;20040;-60
2023/07/14 07:16:18;;;;;;;4.88;2.35;;;;;;;23.45;47.23;94023.91;5103868;28;20437;-60
2023/07/14 07:18:44;;;;;;;5.38;2.40;;;;;;;23.01;48.93;94027.06;5111337;28;20089;-60
2023/07/14 07:21:12;;;;;;;5.80;2.75;;;;;;;23.56;48.88;94020.41;5111058;28;20346;-61
2023/07/14 07:23:40;;;;;;;7.13;3.13;;;;;;;23.52;48.66;94017.06;5094713;28;20036;-60
2023/07/14 07:26:07;;;;;;;6.07;2.80;;;;;;;23.59;48.55;94016.63;5090583;28;20048;-59
2023/07/14 07:28:35;;;;;;;4.97;2.90;;;;;;;24.07;48.21;94021.53;5086028;28;20073;-60
2023/07/14 07:31:10;;;;;;;5.43;2.88;;;;;;;24.83;47.09;94013.66;5088039;28;20116;-61
2023/07/14 07:33:38;;;;;;;4.15;2.70;;;;;;;25.39;47.08;94002.53;5090935;28;20097;-60
2023/07/14 07:36:17;;;;;;;6.20;2.93;;;;;;;25.90;46.47;94000.47;5090210;28;20044;-60
2023/07/14 07:38:48;;;;;;;4.38;2.70;;;;;;;24.27;49.12;94008.63;5090831;28;20393;-60
2023/07/14 07:41:25;;;;;;;6.50;2.70;;;;;;;24.89;48.51;93992.78;5105460;28;20047;-60
2023/07/14 07:43:53;;;;;;;5.47;2.65;;;;;;;26.22;46.53;93994.50;5106190;28;20036;-60
2023/07/14 07:46:23;;;;;;;4.68;2.65;;;;;;;23.41;52.00;93998.16;5072789;28;20492;-60
2023/07/14 07:48:50;;;;;;;5.77;2.93;;;;;;;24.23;51.47;94000.47;5089678;28;20378;-61
2023/07/14 07:51:17;;;;;;;5.35;2.90;;;;;;;25.09;49.00;94000.22;5090660;28;20488;-60
2023/07/14 07:53:44;;;;;;;4.50;2.70;;;;;;;25.21;49.36;94001.03;5104154;28;20449;-59
2023/07/14 07:56:11;;;;;;;6.25;2.85;;;;;;;25.22;50.87;93994.09;5090203;28;20052;-60
2023/07/14 07:58:39;;;;;;;5.40;2.58;;;;;;;26.62;47.43;93997.94;5089069;28;20036;-60
2023/07/14 08:01:15;;;;;;;4.30;2.73;;;;;;;25.14;51.08;93995.09;5093630;28;20124;-63
2023/07/14 08:03:42;;;;;;;7.43;3.03;;;;;;;25.68;49.70;93997.66;5080629;28;20039;-60
2023/07/14 08:06:09;;;;;;;4.65;2.90;;;;;;;26.61;48.54;93990.78;5089947;28;20066;-62
2023/07/14 08:08:36;;;;;;;4.93;2.80;;;;;;;26.17;48.94;93989.66;5104015;28;20112;-59
2023/07/14 08:11:02;;;;;;;5.32;2.60;;;;;;;27.55;46.04;93987.09;5071903;28;20040;-59
2023/07/14 08:13:29;;;;;;;4.47;2.60;;;;;;;26.62;47.68;93974.63;5089930;28;20040;-60
2023/07/14 08:15:57;;;;;;;5.93;2.60;;;;;;;27.47;47.04;93978.44;5089562;28;20048;-60
2023/07/14 08:18:25;;;;;;;4.70;2.67;;;;;;;28.29;43.57;93984.28;5090256;28;20048;-60
2023/07/14 08:20:52;;;;;;;4.10;2.60;;;;;;;25.97;49.31;93975.91;5068824;28;20036;-61
2023/07/14 08:23:21;;;;;;;4.88;2.67;;;;;;;25.77;50.18;93976.94;5089926;28;20040;-60
2023/07/14 08:26:00;;;;;;;6.00;2.63;;;;;;;27.98;45.02;93980.03;5089876;28;20054;-60
2023/07/14 08:28:27;;;;;;;5.30;2.60;;;;;;;28.34;43.91;93982.72;5096067;28;20060;-62
2023/07/14 08:30:58;;;;;;;5.32;2.63;;;;;;;27.18;43.97;93979.91;5096157;28;20059;-59
2023/07/14 08:33:25;;;;;;;4.68;2.58;;;;;;;28.10;42.30;93975.81;5089288;28;20089;-61
2023/07/14 08:35:54;;;;;;;6.70;2.80;;;;;;;25.11;47.03;93978.00;5095572;28;20362;-61
2023/07/14 08:38:22;;;;;;;5.13;2.50;;;;;;;24.61;48.79;93972.28;5088246;28;20060;-60
2023/07/14 08:41:00;;;;;;;4.20;2.90;;;;;;;24.72;48.70;93973.09;5089064;28;20048;-60
2023/07/14 08:43:35;;;;;;;4.57;2.70;;;;;;;25.85;48.37;93973.09;5089142;28;20039;-59
2023/07/14 08:46:15;;;;;;;4.80;3.00;;;;;;;25.23;48.24;93973.19;5088916;28;20407;-61
2023/07/14 08:48:50;;;;;;;3.75;2.70;;;;;;;24.59;50.30;93983.25;5081833;28;20044;-62
2023/07/14 08:51:32;;;;;;;5.17;3.00;;;;;;;23.96;50.87;93985.03;5104130;28;20043;-60
2023/07/14 08:54:04;;;;;;;4.88;2.92;;;;;;;25.62;47.15;93974.44;5109284;28;20050;-60
2023/07/14 08:56:34;;;;;;;4.78;2.70;;;;;;;24.86;48.81;93970.56;5109822;27;20032;-60
2023/07/14 08:59:02;;;;;;;5.20;2.75;;;;;;;25.29;48.50;93970.34;5109277;28;20046;-59
2023/07/14 09:01:48;;;;;;;6.97;2.83;;;;;;;25.23;48.13;93975.22;5092190;28;20044;-59
2023/07/14 09:04:29;;;;;;;5.03;2.63;;;;;;;25.28;48.12;93963.97;5096512;28;20529;-60
2023/07/14 09:06:56;;;;;;;6.47;2.78;;;;;;;24.51;48.51;93975.34;5081691;28;20054;-62
2023/07/14 09:09:33;;;;;;;5.50;2.80;;;;;;;24.52;50.36;93964.88;5072441;28;20380;-61
2023/07/14 09:12:49;;;;;;;6.45;2.95;;;;;;;24.47;49.71;93971.22;5090560;28;20046;-61
2023/07/14 09:15:23;;;;;;;4.22;2.75;;;;;;;25.29;47.51;93956.31;5091509;28;21478;-60
2023/07/14 09:18:19;;;;;;;8.03;2.90;;;;;;;25.87;45.70;93955.72;5097280;28;20040;-61
2023/07/14 09:21:04;;;;;;;5.07;2.92;;;;;;;25.86;46.40;93960.56;5109566;28;20057;-61
2023/07/14 09:23:49;;;;;;;6.80;2.80;;;;;;;27.37;42.79;93960.34;5108871;28;20809;-61
2023/07/14 09:26:24;;;;;;;5.50;2.75;;;;;;;27.96;42.42;93954.41;5100394;28;20422;-63
2023/07/14 09:28:51;;;;;;;7.63;2.78;;;;;;;29.29;40.07;93949.59;5108927;28;20088;-61
2023/07/14 09:31:56;;;;;;;4.73;2.57;;;;;;;27.59;41.61;93948.09;5120696;27;20409;-61
2023/07/14 09:34:25;;;;;;;5.28;2.50;;;;;;;27.54;42.07;93950.97;5108202;28;20055;-61
2023/07/14 09:36:54;;;;;;;4.85;2.60;;;;;;;26.35;43.50;93945.34;5108716;28;20046;-61
2023/07/14 09:39:36;;;;;;;5.68;2.70;;;;;;;26.09;45.77;93940.84;5108811;28;20134;-61
2023/07/14 09:42:06;;;;;;;7.68;2.80;;;;;;;25.14;47.11;93944.56;5090417;28;20172;-61
2023/07/14 09:44:33;;;;;;;6.23;3.00;;;;;;;24.66;50.84;93951.91;5090996;28;20058;-62
2023/07/14 09:47:03;;;;;;;5.25;3.00;;;;;;;25.86;46.70;93951.38;5108671;28;20044;-61
2023/07/14 09:49:44;;;;;;;5.00;2.70;;;;;;;26.07;46.35;93940.59;5109179;28;20058;-61
2023/07/14 09:52:20;;;;;;;5.70;3.15;;;;;;;27.20;44.42;93945.59;5108517;28;20078;-60
2023/07/14 09:54:57;;;;;;;6.72;2.90;;;;;;;25.96;46.50;93944.22;5108793;28;20066;-62
2023/07/14 09:57:27;;;;;;;4.67;2.90;;;;;;;27.76;43.46;93938.69;5107793;28;20434;-62
2023/07/14 10:00:22;;;;;;;4.10;2.67;;;;;;;28.21;41.61;93946.69;5101700;28;20048;-61
2023/07/14 10:02:50;;;;;;;4.90;2.63;;;;;;;28.47;40.03;93935.59;5087862;28;20062;-61
2023/07/14 10:05:51;;;;;;;4.35;2.40;;;;;;;28.69;40.76;93936.59;5096915;28;20055;-61
2023/07/14 10:08:33;;;;;;;4.70;2.70;;;;;;;28.17;41.71;93938.53;5089711;28;20044;-60
2023/07/14 10:11:42;;;;;;;5.33;2.77;;;;;;;28.99;40.05;93930.00;5107776;28;20048;-62
2023/07/14 10:14:35;;;;;;;6.00;2.60;;;;;;;28.27;39.98;93928.41;5049061;28;20096;-61
2023/07/14 10:17:04;;;;;;;5.32;2.50;;;;;;;30.21;37.72;93922.75;5049204;28;20044;-60
2023/07/14 10:19:39;;;;;;;4.63;2.42;;;;;;;31.25;35.48;93915.09;5079908;28;20047;-61
2023/07/14 10:22:14;;;;;;;4.10;2.67;;;;;;;29.40;38.33;93923.97;5111904;28;20044;-63
2023/07/14 10:24:46;;;;;;;9.77;2.70;;;;;;;30.47;36.07;93915.56;5113129;28;20502;-61
2023/07/14 10:27:23;;;;;;;5.72;2.38;;;;;;;30.78;34.90;93911.00;5112260;28;20530;-62
2023/07/14 10:29:58;;;;;;;3.92;2.60;;;;;;;26.58;41.65;93917.84;5112403;28;20048;-61
2023/07/14 10:32:34;;;;;;;4.60;2.50;;;;;;;26.86;40.39;93915.66;5112625;28;20047;-60
2023/07/14 10:35:13;;;;;;;4.50;2.70;;;;;;;26.54;43.10;93915.31;5083505;28;20046;-61
2023/07/14 10:37:49;;;;;;;5.73;2.57;;;;;;;27.92;40.37;93903.94;5107743;28;20044;-61
2023/07/14 10:40:23;;;;;;;6.18;2.40;;;;;;;27.67;42.01;93898.28;5111497;28;20061;-60
2023/07/14 10:43:04;;;;;;;4.45;2.40;;;;;;;28.06;40.58;93897.09;5098639;28;20032;-63
2023/07/14 10:45:34;;;;;;;5.10;2.60;;;;;;;28.85;39.64;93889.63;5105956;28;20052;-62
2023/07/14 10:48:14;;;;;;;4.40;2.50;;;;;;;26.08;43.71;93895.09;5109811;28;20403;-61
2023/07/14 10:50:52;;;;;;;4.77;2.70;;;;;;;25.57;45.00;93902.13;5111482;28;20036;-60
2023/07/14 10:53:24;;;;;;;5.30;2.40;;;;;;;26.67;42.03;93890.16;5056391;28;20093;-60
2023/07/14 10:55:55;;;;;;;7.53;2.40;;;;;;;27.03;41.33;93881.72;5100171;28;20488;-61
2023/07/14 10:58:32;;;;;;;4.70;2.60;;;;;;;25.49;44.79;93894.25;5112128;28;20066;-60
2023/07/14 11:01:11;;;;;;;4.20;2.60;;;;;;;24.96;44.59;93886.88;5088825;28;20097;-61
2023/07/14 11:03:44;;;;;;;5.73;2.57;;;;;;;25.49;45.05;93880.19;5096543;28;20084;-61
2023/07/14 11:06:22;;;;;;;4.45;2.80;;;;;;;26.18;43.53;93875.06;5111201;28;20050;-61
2023/07/14 11:08:55;;;;;;;4.20;2.80;;;;;;;23.96;48.22;93886.91;5111329;28;20491;-60
2023/07/14 11:11:39;;;;;;;4.72;2.95;;;;;;;24.12;46.75;93891.06;5111721;28;20685;-61
2023/07/14 11:14:08;;;;;;;4.68;2.53;;;;;;;25.37;44.38;93875.84;5111505;28;20056;-61
2023/07/14 11:17:06;;;;;;;4.83;2.70;;;;;;;26.06;45.26;93885.66;5111722;28;20036;-60
2023/07/14 11:19:54;;;;;;;4.55;2.53;;;;;;;25.35;44.55;93880.47;5070920;28;20116;-62
2023/07/14 11:22:45;;;;;;;5.15;2.60;;;;;;;26.84;43.19;93872.38;5080548;28;20046;-60
2023/07/14 11:25:23;;;;;;;4.63;2.67;;;;;;;26.85;41.98;93871.09;5110340;28;20040;-61
2023/07/14 11:28:13;;;;;;;4.60;2.80;;;;;;;27.24;41.35;93864.38;5111241;28;20036;-61
2023/07/14 11:30:44;;;;;;;3.67;2.50;;;;;;;26.15;41.46;93865.63;5104297;28;20368;-61
2023/07/14 11:33:37;;;;;;;4.72;2.20;;;;;;;26.55;40.91;93859.78;5090473;28;20050;-60
2023/07/14 11:36:58;;;;;;;3.97;2.35;;;;;;;26.61;40.18;93860.53;5083225;28;20044;-60
2023/07/14 11:39:43;;;;;;;4.10;2.30;;;;;;;27.00;40.30;93857.41;5046882;28;20240;-61
2023/07/14 11:42:33;;;;;;;4.40;2.35;;;;;;;27.21;38.37;93852.09;5064352;28;20037;-60
2023/07/14 11:45:04;;;;;;;4.07;2.60;;;;;;;25.58;42.42;93853.84;5094354;28;20051;-60
2023/07/14 11:47:37;;;;;;;4.18;2.50;;;;;;;27.23;40.25;93840.31;5110809;28;20036;-60
2023/07/14 11:50:19;;;;;;;4.13;2.60;;;;;;;27.59;40.12;93832.53;5110650;28;20042;-60